Time;durP1;ratioP1;P1;durP2;ratioP2;P2;SDS_P1;SDS_P2;PMS_P1;PMS_P2;Temp;Humidity;BMP_temperature;BMP_pressure;BME280_temperature;BME280_humidity;BME280_pressure;Samples;Min_cycle;Max_cycle;Signal;HPM_P1;HPM_P2
2022/09/15 00:01:24;;;;;;;1.88;0.68;;;25.30;96.70;;;;;;5101408;28;20036;-77
2022/09/15 00:03:52;;;;;;;3.72;1.10;;;25.30;96.70;;;;;;5105643;28;20043;-77
2022/09/15 00:06:20;;;;;;;2.88;0.90;;;25.30;96.70;;;;;;5102001;28;20409;-77
2022/09/15 00:08:49;;;;;;;3.78;1.17;;;25.40;96.70;;;;;;5105308;28;20082;-76
2022/09/15 00:11:21;;;;;;;2.78;0.80;;;25.40;96.70;;;;;;5099796;28;20408;-77
2022/09/15 00:13:51;;;;;;;5.57;0.88;;;25.40;96.70;;;;;;5103619;28;20044;-77
2022/09/15 00:16:22;;;;;;;3.90;0.95;;;25.30;96.70;;;;;;5099651;28;20101;-77
2022/09/15 00:18:50;;;;;;;1.80;0.70;;;25.30;96.70;;;;;;5105483;28;20121;-76
2022/09/15 00:21:21;;;;;;;2.60;0.75;;;25.40;96.70;;;;;;5102705;28;20071;-77
2022/09/15 00:23:50;;;;;;;7.00;1.08;;;25.40;96.70;;;;;;5104731;28;20054;-77
2022/09/15 00:26:20;;;;;;;5.60;1.10;;;25.40;96.70;;;;;;5103430;28;20039;-77
2022/09/15 00:28:50;;;;;;;2.83;1.02;;;25.40;96.70;;;;;;5102563;28;20048;-76
2022/09/15 00:31:20;;;;;;;4.25;0.98;;;25.40;96.70;;;;;;5106940;28;20046;-77
2022/09/15 00:33:50;;;;;;;3.38;0.85;;;25.30;96.70;;;;;;5103969;28;20413;-77
2022/09/15 00:36:20;;;;;;;3.03;0.77;;;25.30;96.70;;;;;;5101615;28;20447;-76
2022/09/15 00:38:48;;;;;;;4.05;0.90;;;25.30;96.70;;;;;;5100639;28;20063;-76
2022/09/15 00:41:18;;;;;;;4.57;0.85;;;25.20;96.70;;;;;;5103741;28;20040;-76
2022/09/15 00:43:51;;;;;;;4.95;0.90;;;25.20;96.70;;;;;;5101435;28;20037;-77
2022/09/15 00:46:21;;;;;;;4.40;1.05;;;25.20;96.70;;;;;;5104884;28;20067;-77
2022/09/15 00:48:56;;;;;;;3.70;0.93;;;25.10;96.70;;;;;;5101142;28;20126;-77
2022/09/15 00:51:31;;;;;;;5.15;1.30;;;25.00;96.70;;;;;;5106166;28;20044;-78
2022/09/15 00:54:01;;;;;;;1.90;0.73;;;25.00;96.70;;;;;;5085730;28;20046;-77
2022/09/15 00:56:32;;;;;;;3.45;0.55;;;24.90;96.70;;;;;;5106261;28;20269;-77
2022/09/15 00:59:06;;;;;;;1.75;0.60;;;24.90;96.70;;;;;;5098738;28;20047;-77
2022/09/15 01:01:34;;;;;;;4.18;0.82;;;24.90;96.70;;;;;;5104375;28;20588;-77
2022/09/15 01:04:03;;;;;;;2.78;0.70;;;24.90;96.70;;;;;;5099943;28;20095;-76
2022/09/15 01:06:35;;;;;;;3.28;1.08;;;24.90;96.70;;;;;;5097050;28;20205;-77
2022/09/15 01:09:13;;;;;;;3.55;1.10;;;24.90;96.70;;;;;;5102345;28;20594;-78
2022/09/15 01:11:41;;;;;;;2.85;0.52;;;25.00;96.70;;;;;;5105408;28;20037;-76
2022/09/15 01:14:11;;;;;;;5.28;0.95;;;25.00;96.70;;;;;;5101349;28;20036;-77
2022/09/15 01:16:52;;;;;;;1.63;0.60;;;25.00;96.70;;;;;;5104718;28;20431;-77
2022/09/15 01:19:58;;;;;;;3.67;0.63;;;25.00;96.70;;;;;;5102924;28;20446;-78
2022/09/15 01:22:35;;;;;;;2.08;0.70;;;24.90;96.70;;;;;;5049097;28;20081;-77
2022/09/15 01:25:08;;;;;;;4.55;1.20;;;24.90;96.70;;;;;;5105960;28;20044;-77
2022/09/15 01:28:14;;;;;;;2.97;0.73;;;24.90;96.70;;;;;;5103419;28;20054;-77
2022/09/15 01:30:50;;;;;;;2.47;0.73;;;24.80;96.70;;;;;;5092952;28;20104;-78
2022/09/15 01:33:28;;;;;;;3.47;0.60;;;24.80;96.70;;;;;;5094965;28;20550;-77
2022/09/15 01:36:02;;;;;;;4.93;0.98;;;24.60;96.70;;;;;;5102838;28;20083;-78
2022/09/15 01:38:43;;;;;;;2.65;0.63;;;24.50;96.70;;;;;;5100450;28;20043;-77
2022/09/15 01:41:15;;;;;;;3.05;0.88;;;24.50;96.70;;;;;;5100806;28;20104;-77
2022/09/15 01:43:50;;;;;;;3.75;0.70;;;24.40;96.70;;;;;;5087035;28;20687;-77
2022/09/15 01:46:23;;;;;;;2.60;0.82;;;24.40;96.70;;;;;;5094951;28;20134;-76
2022/09/15 01:48:54;;;;;;;3.75;1.20;;;24.50;96.70;;;;;;5078227;28;20060;-77
2022/09/15 01:51:29;;;;;;;2.60;1.15;;;24.50;96.70;;;;;;5095114;28;20576;-77
2022/09/15 01:54:01;;;;;;;3.38;0.80;;;24.50;96.70;;;;;;5102681;28;20048;-76
2022/09/15 01:56:29;;;;;;;5.07;1.08;;;24.50;96.70;;;;;;5081735;28;20048;-76
2022/09/15 01:58:57;;;;;;;2.95;1.02;;;24.40;96.70;;;;;;5085262;28;20060;-77
2022/09/15 02:01:33;;;;;;;2.08;0.70;;;24.40;96.70;;;;;;5097645;28;20051;-77
2022/09/15 02:04:08;;;;;;;4.65;1.13;;;24.30;96.70;;;;;;5103232;28;20052;-77
2022/09/15 02:06:44;;;;;;;2.20;0.77;;;24.30;96.70;;;;;;5098206;28;20920;-76
2022/09/15 02:09:18;;;;;;;4.32;1.13;;;24.40;96.70;;;;;;5098136;28;20051;-77
2022/09/15 02:11:54;;;;;;;2.42;0.70;;;24.30;96.70;;;;;;5098314;28;20056;-76
2022/09/15 02:14:36;;;;;;;2.53;0.63;;;24.30;96.70;;;;;;5102894;28;20500;-76
2022/09/15 02:17:13;;;;;;;3.75;0.80;;;24.20;96.70;;;;;;5099549;28;20511;-76
2022/09/15 02:19:47;;;;;;;2.13;1.08;;;24.40;96.70;;;;;;5100038;28;20052;-76
2022/09/15 02:22:26;;;;;;;5.65;0.80;;;24.50;96.70;;;;;;5102146;28;20055;-77
2022/09/15 02:25:01;;;;;;;4.05;1.17;;;24.50;96.70;;;;;;5100517;28;20765;-76
2022/09/15 02:27:33;;;;;;;5.07;1.10;;;24.40;96.70;;;;;;5104627;28;20044;-77
2022/09/15 02:30:05;;;;;;;4.40;1.13;;;24.40;96.70;;;;;;5087486;28;20075;-77
2022/09/15 02:32:39;;;;;;;4.35;1.20;;;24.30;96.70;;;;;;5104076;28;20043;-76
2022/09/15 02:35:09;;;;;;;4.82;1.05;;;24.40;96.70;;;;;;5100433;28;20117;-77
2022/09/15 02:37:37;;;;;;;3.70;1.25;;;24.40;96.70;;;;;;5104210;28;20040;-76
2022/09/15 02:40:06;;;;;;;2.92;0.98;;;24.40;96.70;;;;;;5096787;28;20132;-76
2022/09/15 02:42:35;;;;;;;4.78;1.35;;;24.50;96.70;;;;;;5104903;28;20112;-76
2022/09/15 02:45:05;;;;;;;3.50;0.90;;;24.50;96.70;;;;;;5102021;28;20544;-77
2022/09/15 02:47:34;;;;;;;3.25;1.38;;;24.50;96.70;;;;;;5104530;28;20047;-77
2022/09/15 02:50:02;;;;;;;4.43;1.20;;;24.40;96.70;;;;;;5101604;28;20450;-76
2022/09/15 02:52:30;;;;;;;8.57;1.88;;;24.30;96.70;;;;;;5102487;28;20051;-76
2022/09/15 02:54:59;;;;;;;3.53;1.17;;;24.30;96.70;;;;;;5103155;28;20436;-76
2022/09/15 02:57:27;;;;;;;4.55;1.77;;;24.10;96.70;;;;;;5083287;28;20097;-76
2022/09/15 03:00:13;;;;;;;4.38;1.65;;;24.20;96.70;;;;;;5099936;28;20043;-77
2022/09/15 03:02:44;;;;;;;5.93;1.83;;;24.20;96.70;;;;;;5088169;28;20085;-77
2022/09/15 03:05:14;;;;;;;5.85;1.40;;;24.30;96.70;;;;;;5105821;28;20047;-76
2022/09/15 03:07:42;;;;;;;3.15;1.17;;;24.30;96.70;;;;;;5086236;28;20500;-78
2022/09/15 03:10:12;;;;;;;8.60;2.10;;;24.30;96.70;;;;;;5106544;28;20052;-76
2022/09/15 03:12:41;;;;;;;5.40;1.75;;;24.40;96.70;;;;;;5105109;28;20083;-76
2022/09/15 03:15:11;;;;;;;5.32;1.73;;;24.50;96.70;;;;;;5106727;28;20047;-78
2022/09/15 03:17:40;;;;;;;5.78;1.58;;;24.50;96.70;;;;;;5102042;28;20680;-77
2022/09/15 03:20:13;;;;;;;7.88;1.65;;;24.60;96.70;;;;;;5105842;28;20043;-77
2022/09/15 03:22:41;;;;;;;4.97;1.52;;;24.60;96.70;;;;;;5104825;28;20142;-77
2022/09/15 03:25:09;;;;;;;3.42;1.48;;;24.50;96.70;;;;;;5089973;28;20032;-77
2022/09/15 03:27:37;;;;;;;3.88;1.65;;;24.40;96.70;;;;;;5102185;28;20117;-77
2022/09/15 03:30:07;;;;;;;4.85;1.92;;;24.40;96.70;;;;;;5106474;28;20445;-77
2022/09/15 03:32:35;;;;;;;4.25;1.40;;;24.40;96.70;;;;;;5085697;28;20146;-77
2022/09/15 03:35:05;;;;;;;6.50;1.90;;;24.50;96.70;;;;;;5102202;28;20074;-78
2022/09/15 03:37:35;;;;;;;7.18;2.50;;;24.50;96.70;;;;;;5103569;28;20043;-78
2022/09/15 03:40:03;;;;;;;4.00;1.55;;;24.60;96.70;;;;;;5107728;27;20047;-77
2022/09/15 03:42:32;;;;;;;5.10;2.15;;;24.50;96.70;;;;;;5102287;28;20039;-77
2022/09/15 03:45:00;;;;;;;3.85;1.60;;;24.50;96.70;;;;;;5107394;28;20065;-77
2022/09/15 03:47:28;;;;;;;4.68;1.55;;;24.50;96.70;;;;;;5104882;28;20043;-77
2022/09/15 03:49:56;;;;;;;5.47;1.70;;;24.60;96.70;;;;;;5106175;28;20058;-78
2022/09/15 03:52:24;;;;;;;6.72;2.10;;;24.60;96.70;;;;;;5101818;28;20047;-77
2022/09/15 03:54:54;;;;;;;5.25;2.03;;;24.50;96.70;;;;;;5103850;28;20146;-76
2022/09/15 03:57:22;;;;;;;4.15;1.60;;;24.50;96.70;;;;;;5100362;28;20610;-78
2022/09/15 03:59:50;;;;;;;7.20;1.85;;;24.50;96.70;;;;;;5106194;28;20040;-77
2022/09/15 04:02:18;;;;;;;6.18;1.75;;;24.50;96.70;;;;;;5101443;28;20130;-78
2022/09/15 04:04:46;;;;;;;5.20;1.83;;;24.50;96.70;;;;;;5105082;28;20036;-78
2022/09/15 04:07:14;;;;;;;4.03;1.92;;;24.50;96.70;;;;;;5104592;28;20047;-77
2022/09/15 04:09:42;;;;;;;5.75;1.58;;;24.50;96.70;;;;;;5103512;28;20059;-77
2022/09/15 04:12:11;;;;;;;7.00;2.42;;;24.50;96.70;;;;;;5100390;28;20049;-77
2022/09/15 04:14:39;;;;;;;5.10;2.00;;;24.40;96.70;;;;;;5105450;28;20032;-77
2022/09/15 04:17:14;;;;;;;10.90;3.47;;;24.40;96.70;;;;;;5100939;28;20715;-77
2022/09/15 04:19:42;;;;;;;3.28;1.90;;;24.30;96.70;;;;;;5102500;28;20043;-77
2022/09/15 04:22:10;;;;;;;4.15;2.20;;;24.30;96.70;;;;;;5102044;28;20063;-76
2022/09/15 04:24:46;;;;;;;7.95;2.35;;;24.30;96.70;;;;;;5086621;28;20135;-77
2022/09/15 04:27:18;;;;;;;7.25;2.92;;;24.30;96.70;;;;;;5103940;28;20048;-77
2022/09/15 04:29:50;;;;;;;7.88;2.33;;;24.10;96.70;;;;;;5104062;28;20043;-76
2022/09/15 04:32:18;;;;;;;9.57;2.75;;;24.20;96.70;;;;;;5102793;28;20044;-77
2022/09/15 04:34:46;;;;;;;7.47;2.72;;;24.30;96.70;;;;;;5099344;28;20040;-76
2022/09/15 04:37:14;;;;;;;4.85;2.75;;;24.20;96.70;;;;;;5105631;28;20043;-76
2022/09/15 04:39:43;;;;;;;5.72;2.25;;;24.10;96.70;;;;;;5100181;28;20101;-76
2022/09/15 04:42:11;;;;;;;6.60;2.58;;;24.20;96.70;;;;;;5106281;28;20050;-76
2022/09/15 04:44:41;;;;;;;6.68;2.55;;;24.20;96.70;;;;;;5101108;28;20357;-76
2022/09/15 04:47:09;;;;;;;8.25;2.97;;;24.20;96.70;;;;;;5106489;28;20055;-77
2022/09/15 04:49:37;;;;;;;6.65;2.47;;;24.20;96.70;;;;;;5084442;28;20611;-76
2022/09/15 04:52:05;;;;;;;8.75;2.78;;;24.30;96.70;;;;;;5104256;28;20100;-78
2022/09/15 04:54:36;;;;;;;8.10;2.72;;;24.30;96.70;;;;;;5101232;28;20048;-77
2022/09/15 04:57:04;;;;;;;11.32;3.42;;;24.30;96.70;;;;;;5103349;28;20380;-76
2022/09/15 04:59:32;;;;;;;6.55;2.35;;;24.40;96.70;;;;;;5101071;28;20059;-78
2022/09/15 05:02:02;;;;;;;9.02;2.53;;;24.50;96.70;;;;;;5104504;28;20046;-77
2022/09/15 05:04:30;;;;;;;11.00;3.05;;;24.60;96.70;;;;;;5101306;28;20040;-77
2022/09/15 05:06:59;;;;;;;11.82;3.47;;;24.60;96.70;;;;;;5096665;28;20120;-77
2022/09/15 05:09:28;;;;;;;8.93;2.60;;;24.70;96.70;;;;;;5102152;28;20047;-77
2022/09/15 05:11:56;;;;;;;10.48;3.20;;;24.60;96.70;;;;;;5105702;28;20096;-77
2022/09/15 05:14:30;;;;;;;9.15;2.97;;;24.60;96.70;;;;;;5104980;28;20097;-77
2022/09/15 05:16:58;;;;;;;11.60;3.30;;;24.60;96.70;;;;;;5085989;28;20625;-76
2022/09/15 05:19:27;;;;;;;6.15;2.38;;;24.70;96.70;;;;;;5103921;28;20044;-77
2022/09/15 05:21:55;;;;;;;10.95;3.10;;;24.70;96.70;;;;;;5082794;28;20416;-76
2022/09/15 05:24:24;;;;;;;11.95;3.28;;;24.70;96.70;;;;;;5104170;28;20040;-77
2022/09/15 05:26:52;;;;;;;10.48;3.15;;;24.70;96.70;;;;;;5101696;28;20039;-77
2022/09/15 05:29:20;;;;;;;7.82;3.10;;;24.80;96.70;;;;;;5086536;28;20043;-77
2022/09/15 05:31:48;;;;;;;10.00;3.10;;;24.80;96.70;;;;;;5102387;28;20040;-78
2022/09/15 05:34:16;;;;;;;12.90;3.58;;;24.80;96.70;;;;;;5102556;28;20075;-76
2022/09/15 05:36:45;;;;;;;10.40;3.88;;;24.80;96.70;;;;;;5103093;28;20401;-78
2022/09/15 05:39:13;;;;;;;14.30;4.03;;;24.80;96.70;;;;;;5103684;28;20504;-78
2022/09/15 05:41:41;;;;;;;7.63;2.70;;;24.90;96.70;;;;;;5099572;28;20048;-76
2022/09/15 05:44:10;;;;;;;8.77;3.03;;;24.90;96.70;;;;;;5103393;28;20054;-77
2022/09/15 05:46:38;;;;;;;9.63;2.65;;;25.00;96.70;;;;;;5101083;28;20081;-77
2022/09/15 05:49:07;;;;;;;8.63;3.08;;;25.00;96.70;;;;;;5103446;28;20043;-77
2022/09/15 05:51:36;;;;;;;7.45;2.92;;;25.00;96.70;;;;;;5097035;28;20055;-77
2022/09/15 05:54:05;;;;;;;15.05;3.10;;;25.00;96.70;;;;;;5103567;28;20426;-77
2022/09/15 05:56:33;;;;;;;11.13;3.47;;;25.00;96.70;;;;;;5100916;28;20063;-78
2022/09/15 05:59:01;;;;;;;15.18;4.20;;;25.00;96.70;;;;;;5096186;28;20105;-77
2022/09/15 06:01:30;;;;;;;12.00;3.22;;;25.00;96.70;;;;;;5101501;28;20555;-77
2022/09/15 06:03:58;;;;;;;13.90;4.18;;;25.00;96.70;;;;;;5104953;28;20044;-76
2022/09/15 06:06:26;;;;;;;10.45;3.60;;;24.90;96.70;;;;;;5100897;28;20413;-77
2022/09/15 06:08:56;;;;;;;10.88;3.50;;;24.90;96.70;;;;;;5103424;28;20047;-77
2022/09/15 06:11:29;;;;;;;12.32;3.70;;;24.90;96.70;;;;;;5097158;28;20051;-77
2022/09/15 06:13:59;;;;;;;12.02;3.72;;;24.90;96.70;;;;;;5086093;28;20063;-78
2022/09/15 06:16:29;;;;;;;15.27;4.15;;;24.90;96.70;;;;;;5102371;28;20095;-77
2022/09/15 06:18:59;;;;;;;18.52;4.72;;;25.00;96.70;;;;;;5101828;28;20043;-77
2022/09/15 06:21:28;;;;;;;14.15;5.07;;;25.10;96.70;;;;;;5096725;28;20424;-76
2022/09/15 06:23:58;;;;;;;13.93;5.18;;;25.00;96.70;;;;;;5094550;28;20089;-77
2022/09/15 06:26:28;;;;;;;13.60;5.20;;;25.00;96.70;;;;;;5099685;28;20054;-77
2022/09/15 06:28:59;;;;;;;19.20;5.47;;;25.00;96.70;;;;;;5104546;28;20637;-77
2022/09/15 06:31:28;;;;;;;14.05;4.28;;;25.10;96.70;;;;;;5098710;28;20062;-77
2022/09/15 06:33:56;;;;;;;13.27;5.38;;;25.20;96.70;;;;;;5105281;28;20067;-77
2022/09/15 06:36:26;;;;;;;15.60;5.00;;;25.30;96.70;;;;;;5102524;28;20059;-77
2022/09/15 06:38:55;;;;;;;15.32;4.93;;;25.40;96.70;;;;;;5106833;28;20044;-76
2022/09/15 06:41:24;;;;;;;19.42;5.57;;;25.40;96.70;;;;;;5106901;28;20128;-76
2022/09/15 06:43:54;;;;;;;16.70;5.60;;;25.40;96.70;;;;;;5106452;28;20051;-77
2022/09/15 06:46:24;;;;;;;20.45;6.05;;;25.40;96.70;;;;;;5102206;28;20043;-77
2022/09/15 06:48:52;;;;;;;17.38;5.55;;;25.40;96.70;;;;;;5096083;28;20039;-78
2022/09/15 06:51:22;;;;;;;24.30;6.00;;;25.50;96.70;;;;;;5106897;28;20051;-77
2022/09/15 06:53:53;;;;;;;22.50;6.22;;;25.60;96.70;;;;;;5105705;28;20640;-77
2022/09/15 06:56:22;;;;;;;20.83;6.70;;;25.50;96.70;;;;;;5106138;28;20047;-76
2022/09/15 06:58:52;;;;;;;18.98;5.82;;;25.50;96.70;;;;;;5103254;28;20059;-77
2022/09/15 07:01:23;;;;;;;27.23;7.90;;;25.50;96.70;;;;;;5105369;28;20550;-77
2022/09/15 07:03:51;;;;;;;25.75;9.13;;;25.60;96.70;;;;;;5103893;28;20050;-77
2022/09/15 07:06:21;;;;;;;25.15;6.55;;;25.70;96.70;;;;;;5108045;28;20096;-78
2022/09/15 07:08:49;;;;;;;23.77;6.55;;;25.70;96.70;;;;;;5105768;28;20044;-77
2022/09/15 07:11:18;;;;;;;25.52;7.10;;;25.70;96.70;;;;;;5106747;28;20052;-77
2022/09/15 07:13:50;;;;;;;21.67;6.93;;;25.70;96.70;;;;;;5102617;28;20044;-77
2022/09/15 07:16:21;;;;;;;20.05;6.43;;;25.70;96.70;;;;;;5106918;28;20043;-77
2022/09/15 07:18:49;;;;;;;24.05;7.20;;;25.70;96.70;;;;;;5104931;28;20040;-76
2022/09/15 07:21:18;;;;;;;22.80;7.15;;;25.80;96.70;;;;;;5100513;28;20040;-76
2022/09/15 07:23:47;;;;;;;22.20;6.07;;;25.80;96.70;;;;;;5104879;28;20046;-76
2022/09/15 07:26:17;;;;;;;20.50;5.25;;;25.70;96.70;;;;;;5104364;28;20101;-77
2022/09/15 07:28:48;;;;;;;23.80;5.03;;;25.60;96.70;;;;;;5104924;28;20048;-77
2022/09/15 07:31:20;;;;;;;23.85;5.20;;;25.60;96.70;;;;;;5106626;28;20035;-77
2022/09/15 07:33:48;;;;;;;18.00;4.47;;;25.60;96.70;;;;;;5100834;28;20446;-77
2022/09/15 07:36:16;;;;;;;20.65;4.65;;;25.70;96.70;;;;;;5105343;28;20046;-78
2022/09/15 07:38:46;;;;;;;26.15;5.28;;;25.70;96.70;;;;;;5102198;28;20047;-78
2022/09/15 07:41:16;;;;;;;21.17;4.65;;;25.70;96.70;;;;;;5103682;27;20142;-76
2022/09/15 07:43:49;;;;;;;19.58;4.53;;;25.80;96.70;;;;;;5101698;28;20035;-78
2022/09/15 07:46:19;;;;;;;19.55;5.20;;;25.80;96.70;;;;;;5106090;28;20067;-77
2022/09/15 07:48:49;;;;;;;19.48;4.97;;;25.90;96.70;;;;;;5106292;28;20051;-76
2022/09/15 07:51:18;;;;;;;21.23;4.88;;;25.90;96.70;;;;;;5097970;28;20047;-77
2022/09/15 07:53:47;;;;;;;16.83;4.70;;;25.90;96.70;;;;;;5103818;27;20039;-77
2022/09/15 07:56:19;;;;;;;21.08;4.78;;;26.00;96.70;;;;;;5104377;28;20048;-77
2022/09/15 07:58:48;;;;;;;15.25;4.65;;;26.00;96.70;;;;;;5103997;28;20124;-77
2022/09/15 08:01:17;;;;;;;21.90;5.43;;;26.10;96.70;;;;;;5102765;28;20043;-77
2022/09/15 08:03:48;;;;;;;24.75;6.15;;;26.20;96.70;;;;;;5098731;28;20054;-76
2022/09/15 08:06:17;;;;;;;19.60;5.25;;;26.20;96.70;;;;;;5104326;28;20043;-77
2022/09/15 08:08:45;;;;;;;18.92;6.00;;;26.20;96.70;;;;;;5089451;28;20040;-77
2022/09/15 08:11:17;;;;;;;21.35;5.30;;;26.30;96.70;;;;;;5100730;28;20039;-77
2022/09/15 08:13:46;;;;;;;22.25;5.70;;;26.30;96.70;;;;;;5104631;28;20061;-79
2022/09/15 08:16:16;;;;;;;20.10;5.18;;;26.30;96.70;;;;;;5100140;28;20047;-77
2022/09/15 08:18:46;;;;;;;21.50;5.18;;;26.20;96.70;;;;;;5105627;28;20123;-77
2022/09/15 08:21:16;;;;;;;21.40;5.35;;;26.20;96.70;;;;;;5084808;28;20748;-77
2022/09/15 08:23:48;;;;;;;24.63;5.95;;;26.20;96.70;;;;;;5105443;28;20136;-78
2022/09/15 08:26:16;;;;;;;21.35;5.53;;;26.20;96.70;;;;;;5100915;28;20127;-76
2022/09/15 08:28:44;;;;;;;23.20;5.63;;;26.10;96.70;;;;;;5106357;28;20435;-78
2022/09/15 08:31:13;;;;;;;20.98;5.22;;;26.00;96.70;;;;;;5098510;28;20486;-76
2022/09/15 08:33:46;;;;;;;21.98;6.05;;;26.00;96.70;;;;;;5101986;28;20082;-77
2022/09/15 08:36:15;;;;;;;24.05;5.60;;;26.10;96.70;;;;;;5099401;28;20048;-77
2022/09/15 08:38:44;;;;;;;22.88;6.05;;;26.20;96.70;;;;;;5105393;28;20063;-77
2022/09/15 08:41:17;;;;;;;20.38;5.10;;;26.20;96.70;;;;;;5099695;28;20142;-77
2022/09/15 08:43:50;;;;;;;19.42;5.32;;;26.30;96.70;;;;;;5102943;28;20051;-79
2022/09/15 08:46:25;;;;;;;19.27;5.25;;;26.40;96.70;;;;;;5100423;28;20036;-77
2022/09/15 08:48:59;;;;;;;20.00;5.05;;;26.40;96.70;;;;;;5101679;28;20101;-77
2022/09/15 08:51:39;;;;;;;21.63;5.60;;;26.50;96.70;;;;;;5098649;28;20504;-77
2022/09/15 08:54:11;;;;;;;20.08;5.43;;;26.50;96.70;;;;;;5103304;28;20044;-77
2022/09/15 08:56:42;;;;;;;21.30;5.28;;;26.40;96.70;;;;;;5104330;28;20041;-78
2022/09/15 08:59:14;;;;;;;19.55;6.05;;;26.50;96.70;;;;;;5097635;28;20062;-77
2022/09/15 09:01:58;;;;;;;13.98;4.68;;;26.50;96.70;;;;;;5098005;28;20054;-79
2022/09/15 09:05:00;;;;;;;23.05;5.63;;;26.50;96.70;;;;;;5100745;28;20048;-77
2022/09/15 09:07:54;;;;;;;20.13;4.95;;;26.50;96.70;;;;;;5097957;28;20063;-78
2022/09/15 09:10:29;;;;;;;16.10;4.57;;;26.50;96.70;;;;;;5099394;28;20050;-77
2022/09/15 09:13:12;;;;;;;16.77;4.43;;;26.40;96.70;;;;;;5094932;28;20075;-77
2022/09/15 09:15:52;;;;;;;16.00;4.38;;;26.40;96.70;;;;;;5101807;28;20044;-77
2022/09/15 09:18:51;;;;;;;20.80;4.90;;;26.40;96.70;;;;;;5097269;28;20427;-76
2022/09/15 09:21:25;;;;;;;15.70;4.75;;;26.30;96.70;;;;;;5096705;28;20047;-77
2022/09/15 09:24:02;;;;;;;17.00;4.63;;;26.30;96.70;;;;;;5099792;28;20048;-76
2022/09/15 09:26:33;;;;;;;16.70;4.70;;;26.30;96.70;;;;;;5087173;28;20664;-78
2022/09/15 09:29:05;;;;;;;18.35;5.13;;;26.20;96.70;;;;;;5100653;28;20086;-77
2022/09/15 09:31:35;;;;;;;17.50;4.28;;;26.20;96.70;;;;;;5105716;28;20316;-77
2022/09/15 09:34:14;;;;;;;16.67;4.35;;;26.20;96.70;;;;;;5099540;28;20628;-77
2022/09/15 09:36:42;;;;;;;13.98;3.30;;;26.20;96.70;;;;;;5094301;28;20048;-78
2022/09/15 09:39:14;;;;;;;17.52;5.07;;;26.20;96.70;;;;;;5103172;28;20463;-77
2022/09/15 09:41:43;;;;;;;20.58;4.57;;;26.20;96.70;;;;;;5101326;28;20048;-78
2022/09/15 09:44:13;;;;;;;12.55;3.70;;;26.20;96.70;;;;;;5083961;28;20047;-77
2022/09/15 09:46:41;;;;;;;16.38;4.15;;;26.20;96.70;;;;;;5101609;28;20119;-77
2022/09/15 09:49:16;;;;;;;21.30;4.30;;;26.20;96.70;;;;;;5100667;28;20054;-78
2022/09/15 09:51:51;;;;;;;15.30;4.80;;;26.10;96.70;;;;;;5102417;28;20405;-78
2022/09/15 09:54:23;;;;;;;14.35;4.43;;;26.10;96.70;;;;;;5103930;28;20044;-78
2022/09/15 09:56:53;;;;;;;14.40;4.15;;;26.10;96.70;;;;;;5101371;28;20055;-77
2022/09/15 09:59:35;;;;;;;14.30;5.20;;;26.00;96.70;;;;;;5097587;28;20055;-77
2022/09/15 10:02:12;;;;;;;15.00;4.47;;;26.00;96.70;;;;;;5100292;28;20136;-77
2022/09/15 10:04:41;;;;;;;13.10;4.22;;;26.00;96.70;;;;;;5105062;28;20500;-78
2022/09/15 10:07:11;;;;;;;11.85;4.13;;;26.00;96.70;;;;;;5082616;28;20057;-76
2022/09/15 10:09:51;;;;;;;13.70;5.63;;;26.00;96.70;;;;;;5103645;28;20222;-77
2022/09/15 10:12:30;;;;;;;16.08;4.93;;;25.90;96.70;;;;;;5097360;28;20052;-77
2022/09/15 10:15:02;;;;;;;18.17;5.25;;;25.90;96.70;;;;;;5102351;28;20048;-77
2022/09/15 10:17:43;;;;;;;17.15;4.97;;;26.00;96.70;;;;;;5098417;28;20493;-77
2022/09/15 10:20:24;;;;;;;15.20;4.38;;;25.90;96.70;;;;;;5102481;28;20057;-76
2022/09/15 10:23:01;;;;;;;13.50;4.53;;;25.80;96.70;;;;;;5101355;28;20047;-77
2022/09/15 10:25:34;;;;;;;13.95;4.15;;;25.90;96.70;;;;;;5101281;28;20067;-78
2022/09/15 10:28:24;;;;;;;14.18;4.15;;;25.90;96.70;;;;;;5100758;28;20144;-77
2022/09/15 10:31:01;;;;;;;13.98;3.90;;;26.00;96.70;;;;;;5096255;28;20036;-76
2022/09/15 10:33:31;;;;;;;17.08;5.13;;;26.00;96.70;;;;;;5103051;28;20142;-77
2022/09/15 10:36:03;;;;;;;18.02;4.45;;;26.00;96.70;;;;;;5099312;28;20043;-76
2022/09/15 10:38:39;;;;;;;14.13;3.63;;;26.00;96.70;;;;;;5104384;28;20072;-77
2022/09/15 10:41:24;;;;;;;14.20;4.78;;;26.00;96.70;;;;;;5096386;28;20038;-77
2022/09/15 10:44:12;;;;;;;14.10;4.32;;;26.00;96.70;;;;;;5097210;28;20122;-77
2022/09/15 10:46:49;;;;;;;14.95;3.55;;;26.00;96.70;;;;;;5101503;28;20465;-76
2022/09/15 10:49:34;;;;;;;15.02;4.10;;;26.00;96.70;;;;;;5094172;28;20126;-76
2022/09/15 10:52:12;;;;;;;17.95;3.78;;;25.90;96.70;;;;;;5099924;28;20115;-77
2022/09/15 10:55:00;;;;;;;17.00;4.10;;;25.90;96.70;;;;;;5099701;28;20079;-78
2022/09/15 10:57:45;;;;;;;15.68;3.50;;;25.90;96.70;;;;;;5101044;28;20043;-77
2022/09/15 11:00:19;;;;;;;15.13;3.28;;;26.00;96.70;;;;;;5086049;28;20070;-77
2022/09/15 11:03:11;;;;;;;15.00;3.65;;;26.00;96.70;;;;;;5103880;28;20032;-77
2022/09/15 11:05:47;;;;;;;13.55;3.53;;;26.00;96.70;;;;;;5102744;28;20063;-77
2022/09/15 11:08:48;;;;;;;10.20;2.92;;;26.00;96.70;;;;;;5098800;28;20051;-76
2022/09/15 11:11:21;;;;;;;15.77;3.60;;;26.00;96.70;;;;;;5092748;28;20467;-77
2022/09/15 11:14:04;;;;;;;12.35;4.25;;;26.00;96.70;;;;;;5098436;28;20036;-77
2022/09/15 11:16:46;;;;;;;19.20;4.45;;;26.00;96.70;;;;;;5104304;28;20041;-77
2022/09/15 11:19:48;;;;;;;19.88;3.95;;;26.00;96.70;;;;;;5102556;28;20035;-78
2022/09/15 11:22:20;;;;;;;16.83;4.00;;;26.00;96.70;;;;;;5099114;28;20063;-77
2022/09/15 11:24:52;;;;;;;17.25;4.05;;;25.90;96.70;;;;;;5103522;28;20055;-77
2022/09/15 11:27:26;;;;;;;20.73;5.03;;;25.90;96.70;;;;;;5103980;28;20043;-77
2022/09/15 11:30:03;;;;;;;14.50;3.55;;;26.00;96.70;;;;;;5107112;28;20040;-77
2022/09/15 11:32:39;;;;;;;22.02;5.60;;;26.10;96.70;;;;;;5104291;28;20055;-77
2022/09/15 11:35:33;;;;;;;15.27;4.38;;;26.60;96.70;;;;;;5104935;28;20039;-77
2022/09/15 11:38:30;;;;;;;22.23;5.50;;;27.10;96.70;;;;;;5093570;28;20044;-77
2022/09/15 11:41:13;;;;;;;17.15;4.50;;;27.50;96.70;;;;;;5086639;28;20146;-77
2022/09/15 11:43:53;;;;;;;21.75;5.20;;;27.70;96.70;;;;;;5102871;28;20057;-77
2022/09/15 11:46:29;;;;;;;21.23;5.43;;;28.00;96.70;;;;;;5105670;28;20040;-79
2022/09/15 11:49:05;;;;;;;20.33;3.97;;;28.30;96.70;;;;;;5104510;28;20425;-77
2022/09/15 11:51:40;;;;;;;23.23;5.30;;;28.50;96.70;;;;;;5104669;28;20800;-78
2022/09/15 11:54:15;;;;;;;17.83;4.50;;;28.60;96.70;;;;;;5104265;28;20047;-77
2022/09/15 11:56:46;;;;;;;18.83;5.20;;;28.90;96.70;;;;;;5101261;28;20116;-77
2022/09/15 11:59:26;;;;;;;20.33;4.75;;;29.20;96.70;;;;;;5105973;28;20057;-77
2022/09/15 12:02:04;;;;;;;24.80;4.78;;;29.30;96.70;;;;;;5088688;28;20093;-77
2022/09/15 12:04:37;;;;;;;19.70;4.35;;;29.30;96.70;;;;;;5107471;28;20043;-77
2022/09/15 12:07:13;;;;;;;18.83;4.90;;;29.40;96.70;;;;;;5103635;28;20035;-78
2022/09/15 12:09:42;;;;;;;19.30;4.70;;;29.20;96.70;;;;;;5106777;28;20120;-79
2022/09/15 12:12:15;;;;;;;18.30;4.75;;;29.30;96.70;;;;;;5099795;28;20043;-77
2022/09/15 12:14:45;;;;;;;23.48;4.78;;;29.50;96.70;;;;;;5106991;28;20075;-78
2022/09/15 12:17:22;;;;;;;21.77;5.05;;;29.60;96.70;;;;;;5104586;28;20053;-77
2022/09/15 12:19:59;;;;;;;20.17;4.43;;;29.40;96.70;;;;;;5106297;28;20062;-77
2022/09/15 12:22:33;;;;;;;24.05;5.40;;;29.20;96.70;;;;;;5100680;28;20053;-77
2022/09/15 12:25:08;;;;;;;19.85;5.55;;;29.30;96.70;;;;;;5102823;28;20127;-77
2022/09/15 12:27:36;;;;;;;25.40;5.65;;;29.50;96.70;;;;;;5104051;28;20044;-77
2022/09/15 12:30:25;;;;;;;23.92;5.20;;;29.50;96.70;;;;;;5104080;28;20042;-77
2022/09/15 12:32:57;;;;;;;22.88;5.38;;;29.60;96.70;;;;;;5101047;28;20508;-78
2022/09/15 12:35:32;;;;;;;24.45;6.03;;;29.50;96.70;;;;;;5100851;28;20496;-78
2022/09/15 12:38:00;;;;;;;30.15;6.00;;;29.60;96.70;;;;;;5104910;28;20466;-77
2022/09/15 12:40:36;;;;;;;32.55;6.50;;;29.70;96.70;;;;;;5098004;28;20048;-78
2022/09/15 12:43:19;;;;;;;30.60;6.57;;;29.80;96.70;;;;;;5104624;28;20842;-78
2022/09/15 12:45:54;;;;;;;32.83;6.88;;;29.90;96.70;;;;;;5102502;28;20077;-78
2022/09/15 12:48:26;;;;;;;35.55;7.45;;;30.00;96.70;;;;;;5087366;28;20509;-79
2022/09/15 12:50:57;;;;;;;40.85;7.57;;;30.10;96.70;;;;;;5103964;28;20044;-77
2022/09/15 12:53:29;;;;;;;34.03;7.93;;;30.00;96.70;;;;;;5104185;28;20416;-78
2022/09/15 12:56:05;;;;;;;35.38;7.90;;;30.10;96.70;;;;;;5087519;28;20044;-78
2022/09/15 12:58:36;;;;;;;30.05;7.18;;;29.90;96.70;;;;;;5094383;28;20051;-78
2022/09/15 13:01:31;;;;;;;30.13;7.32;;;30.10;96.70;;;;;;5103509;28;20050;-77
2022/09/15 13:04:25;;;;;;;34.67;7.45;;;29.90;96.70;;;;;;5100805;28;20040;-78
2022/09/15 13:07:35;;;;;;;27.42;6.82;;;29.60;96.70;;;;;;5096289;28;20494;-77
2022/09/15 13:10:27;;;;;;;33.97;7.43;;;29.50;96.70;;;;;;5076633;28;20047;-78